Terminal Aerodrome Forecast
Issued by NWS Louisville, KY

Home | Current Version | Previous Version | Text Only | Print | Product List | Glossary On
Versions: 1 2 3 4 5 6 7 8 9 10 11 12 13 14 15 16 17 18
966
FTUS43 KLMK 061539 AAA
TAFLEX
TAF AMD
KLEX 061539Z 0616/0712 VRB04KT 4SM -RA BR SCT005 BKN012
      TEMPO 0616/0619 2SM RA BR BKN005
     FM061900 29011KT 3SM -RA BR OVC005
     FM062300 29010KT 6SM BR OVC012=

USA.gov is the U.S. government's official web portal to all federal, state and local government web resources and services.